Terminal Aerodrome Forecast
Issued by NWS Paducah, KY

Home | Current Version | Previous Version | Text Only | Print | Product List | Glossary On
Versions: 1 2 3 4 5 6 7 8 9 10 11 12 13 14 15 16 17 18 19 20 21 22
000
FTUS43 KPAH 172300
TAFPAH
TAF
KPAH 172320Z 1800/1824 31003KT P6SM SCT100 OVC250
     FM180300 VRB03KT P6SM OVC080
     FM180800 VRB03KT 4SM -SNPLRA BR SCT005 OVC015
      TEMPO 1809/1812 2SM -FZRASNPL OVC005
     FM181200 06003KT 4SM BR OVC010 PROB30 1812/1815 2SM -FZRAPL
     FM181900 04004KT P6SM SCT010 OVC030=

USA.gov is the U.S. government's official web portal to all federal, state and local government web resources and services.